Terminal Aerodrome Forecast
Issued by NWS Cleveland, OH

Home | Current Version | Previous Version | Text Only | Print | Product List | Glossary On
Versions: 1 2 3 4 5 6 7 8 9 10 11 12 13 14 15 16 17 18 19 20 21 22 23 24 25 26 27 28 29
205
FTUS41 KCLE 251738
TAFCLE
TAF
KCLE 251738Z 2518/2624 27020G32KT P6SM BKN025 OVC035
      TEMPO 2519/2523 5SM -SHSN BKN015
     FM260000 27015G25KT P6SM OVC025
     FM260500 26014KT P6SM OVC025
     FM261600 24008KT P6SM BKN035 OVC100=

USA.gov is the U.S. government's official web portal to all federal, state and local government web resources and services.